メインページ
METAR-TAF:

METAR-TAF

空港 :

ポートモレスビー・ジャクソン国際空港

ポートモレスビー, パプアニューギニア

緯度: 09-26S, 経度: 147-13E, 海抜: 38m

現時点の気象観測

当レポートは30分前の13:00(UTC)に作成
北西の風 2kt
気温 25°C
湿度 94%
気圧 1008 hPa
視程10km以上
高度5000ftの雲はほとんどない

METAR: AYPY 201300Z 32002KT 9999 FEW050 25/24 Q1008 RMK: SHRA IN AREA

時間: 23:30 (13:30 UTC)

予報

当レポートは9時間34分前の03:56(UTC)に作成
予報は20日の 06時(UTC)から 21日の 06時(UTC)まで有効
西の風 8kt
視程: 4000m
高度1800ftの雲は散在している
高度3000ftの雲は散在している
高度12000ftの千切れ雲あり
高度800ftの千切れ雲あり
弱いにわか雨, 激しいにわか雨

TAF: AYPY 200356Z 2006/2106 27008KT 9999 -SHRA SCT018 SCT030 BKN120 INTER 2006/2012 4000 +SHRA BKN008

4,000以上の空港の気象観測と天気予報(METAR報とTAF報)

利用可能な観測所は地図上に黄色い丸と赤い丸で示す。

丸の上にカーソルを重ねると観測所名を参照できる。

次にクリックすると気象観測と天気予報を参照できる。

マップの切り替え:黒色「×」印の緑ボタンをクリックして拡大、「-」印の緑ボタンをクリックして縮小、緑色の三角印をクリックして隣りの地図に切り替え


METAR-TAF: